CMP285 MMUN-MPTO
Flight info
| Callsign | CMP285 |
|---|---|
| Flight time | 2h 9m |
| Altitude | 37000 |
| Route | TAKUX2A TAKUX UM782 OMIRO UN420 PELRA DCT SPP DCT MORLI OSUPA2 |
| Aircraft | B738/M-SDE2E3FGHIRWXY/LB1 |
Departure
| Time | 2026-05-08 06:28 |
|---|---|
| Airport | Cancún International Airport (MMUN) |
Arrival
| Time | 2026-05-08 08:37 |
|---|---|
| Airport | Tocumen International Airport (MPTO) |
| Time | Latitude | Longitude | Altitude | Speed | Heading |
|---|---|---|---|---|---|
| 2026-05-08 06:08 | 21.03791 | -86.87317 | 42 ft | 0 kts | 34° |
| 2026-05-08 06:20 | 21.03778 | -86.87326 | 39 ft | 4 kts | 27° |
| 2026-05-08 06:20 | 21.03753 | -86.87336 | 42 ft | 4 kts | 7° |
| 2026-05-08 06:21 | 21.03727 | -86.87335 | 39 ft | 4 kts | 342° |
| 2026-05-08 06:21 | 21.03704 | -86.87322 | 40 ft | 4 kts | 314° |
| 2026-05-08 06:21 | 21.03695 | -86.87312 | 39 ft | 0 kts | 304° |
| 2026-05-08 06:23 | 21.03707 | -86.87332 | 40 ft | 9 kts | 304° |
| 2026-05-08 06:23 | 21.03759 | -86.87424 | 42 ft | 17 kts | 282° |
| 2026-05-08 06:24 | 21.03767 | -86.87563 | 41 ft | 24 kts | 305° |
| 2026-05-08 06:24 | 21.03874 | -86.87734 | 41 ft | 31 kts | 303° |
| 2026-05-08 06:24 | 21.03967 | -86.87882 | 41 ft | 19 kts | 304° |
| 2026-05-08 06:24 | 21.04040 | -86.88001 | 41 ft | 19 kts | 303° |
| 2026-05-08 06:25 | 21.04112 | -86.88115 | 40 ft | 18 kts | 304° |
| 2026-05-08 06:25 | 21.04182 | -86.88225 | 41 ft | 18 kts | 303° |
| 2026-05-08 06:25 | 21.04255 | -86.88342 | 41 ft | 21 kts | 304° |
| 2026-05-08 06:25 | 21.04348 | -86.88489 | 41 ft | 26 kts | 304° |
| 2026-05-08 06:26 | 21.04459 | -86.88666 | 41 ft | 31 kts | 303° |
| 2026-05-08 06:26 | 21.04581 | -86.88864 | 41 ft | 33 kts | 303° |
| 2026-05-08 06:26 | 21.04598 | -86.89033 | 38 ft | 15 kts | 213° |
| 2026-05-08 06:26 | 21.04517 | -86.89069 | 35 ft | 3 kts | 129° |
| 2026-05-08 06:27 | 21.04488 | -86.89029 | 35 ft | 11 kts | 127° |
| 2026-05-08 06:27 | 21.04413 | -86.88909 | 36 ft | 42 kts | 124° |
| 2026-05-08 06:27 | 21.04095 | -86.88401 | 38 ft | 117 kts | 123° |
| 2026-05-08 06:27 | 21.03533 | -86.87498 | 89 ft | 169 kts | 126° |
| 2026-05-08 06:28 | 21.02786 | -86.86377 | 403 ft | 202 kts | 127° |
| 2026-05-08 06:28 | 21.01922 | -86.85151 | 1044 ft | 208 kts | 128° |
| 2026-05-08 06:28 | 21.01166 | -86.83880 | 1935 ft | 199 kts | 119° |
| 2026-05-08 06:28 | 21.00500 | -86.82497 | 2237 ft | 221 kts | 118° |
| 2026-05-08 06:29 | 20.99770 | -86.80951 | 2569 ft | 242 kts | 118° |
| 2026-05-08 06:29 | 20.98996 | -86.79329 | 3332 ft | 247 kts | 118° |
| 2026-05-08 06:29 | 20.98206 | -86.77689 | 4145 ft | 250 kts | 118° |
| 2026-05-08 06:29 | 20.97400 | -86.76017 | 4706 ft | 255 kts | 117° |
| 2026-05-08 06:30 | 20.96586 | -86.74319 | 4975 ft | 257 kts | 117° |
| 2026-05-08 06:30 | 20.95765 | -86.72622 | 4999 ft | 257 kts | 120° |
| 2026-05-08 06:30 | 20.94789 | -86.71005 | 5320 ft | 261 kts | 126° |
| 2026-05-08 06:30 | 20.93729 | -86.69425 | 6154 ft | 262 kts | 126° |
| 2026-05-08 06:31 | 20.92658 | -86.67844 | 6945 ft | 265 kts | 126° |
| 2026-05-08 06:31 | 20.91569 | -86.66230 | 7639 ft | 270 kts | 126° |
| 2026-05-08 06:31 | 20.90467 | -86.64588 | 8199 ft | 271 kts | 125° |
| 2026-05-08 06:31 | 20.89374 | -86.62951 | 8480 ft | 272 kts | 125° |
| 2026-05-08 06:32 | 20.88277 | -86.61303 | 8480 ft | 277 kts | 125° |
| 2026-05-08 06:32 | 20.87165 | -86.59627 | 8476 ft | 276 kts | 125° |
| 2026-05-08 06:32 | 20.86056 | -86.57956 | 8481 ft | 275 kts | 125° |
| 2026-05-08 06:32 | 20.84951 | -86.56288 | 8478 ft | 275 kts | 125° |
| 2026-05-08 06:33 | 20.83844 | -86.54618 | 8483 ft | 275 kts | 125° |
| 2026-05-08 06:33 | 20.82740 | -86.52951 | 8481 ft | 275 kts | 125° |
| 2026-05-08 06:33 | 20.81994 | -86.51824 | 8472 ft | 275 kts | 125° |
| 2026-05-08 06:33 | 20.80887 | -86.50154 | 8485 ft | 275 kts | 125° |
| 2026-05-08 06:34 | 20.79783 | -86.48488 | 8487 ft | 275 kts | 125° |
| 2026-05-08 06:34 | 20.78693 | -86.46842 | 8479 ft | 275 kts | 125° |
| 2026-05-08 06:34 | 20.77587 | -86.45174 | 8480 ft | 275 kts | 125° |
| 2026-05-08 06:34 | 20.76481 | -86.43507 | 8479 ft | 275 kts | 125° |
| 2026-05-08 06:35 | 20.75374 | -86.41839 | 8476 ft | 275 kts | 125° |
| 2026-05-08 06:35 | 20.74267 | -86.40171 | 8504 ft | 276 kts | 125° |
| 2026-05-08 06:35 | 20.73154 | -86.38494 | 9007 ft | 278 kts | 125° |
| 2026-05-08 06:35 | 20.72039 | -86.36816 | 9856 ft | 276 kts | 125° |
| 2026-05-08 06:36 | 20.70915 | -86.35123 | 10387 ft | 287 kts | 124° |
| 2026-05-08 06:36 | 20.69708 | -86.33308 | 10526 ft | 310 kts | 126° |
| 2026-05-08 06:36 | 20.68125 | -86.31633 | 10628 ft | 335 kts | 147° |
| 2026-05-08 06:36 | 20.66020 | -86.30463 | 11016 ft | 345 kts | 152° |
| 2026-05-08 06:37 | 20.63837 | -86.29356 | 11609 ft | 349 kts | 153° |
| 2026-05-08 06:37 | 20.61623 | -86.28248 | 12128 ft | 355 kts | 153° |
| 2026-05-08 06:37 | 20.59377 | -86.27121 | 12688 ft | 358 kts | 153° |
| 2026-05-08 06:37 | 20.57111 | -86.25977 | 13244 ft | 362 kts | 152° |
| 2026-05-08 06:38 | 20.54823 | -86.24814 | 13808 ft | 365 kts | 152° |
| 2026-05-08 06:38 | 20.52520 | -86.23640 | 14305 ft | 368 kts | 152° |
| 2026-05-08 06:38 | 20.50204 | -86.22456 | 14824 ft | 370 kts | 152° |
| 2026-05-08 06:38 | 20.47880 | -86.21267 | 14947 ft | 371 kts | 152° |
| 2026-05-08 06:39 | 20.45548 | -86.20073 | 14972 ft | 372 kts | 152° |
| 2026-05-08 06:39 | 20.43209 | -86.18876 | 14976 ft | 374 kts | 153° |
| 2026-05-08 06:39 | 20.40866 | -86.17677 | 14979 ft | 374 kts | 152° |
| 2026-05-08 06:39 | 20.38521 | -86.16477 | 14974 ft | 374 kts | 152° |
| 2026-05-08 06:40 | 20.36174 | -86.15277 | 14976 ft | 374 kts | 152° |
| 2026-05-08 06:40 | 20.33827 | -86.14077 | 14975 ft | 374 kts | 152° |
| 2026-05-08 06:40 | 20.31477 | -86.12875 | 14974 ft | 374 kts | 152° |
| 2026-05-08 06:40 | 20.29130 | -86.11676 | 14970 ft | 374 kts | 152° |
| 2026-05-08 06:41 | 20.26780 | -86.10475 | 14975 ft | 374 kts | 152° |
| 2026-05-08 06:41 | 20.24431 | -86.09276 | 14975 ft | 374 kts | 152° |
| 2026-05-08 06:41 | 20.22125 | -86.08075 | 14972 ft | 373 kts | 148° |
| 2026-05-08 06:41 | 20.20055 | -86.06416 | 15105 ft | 375 kts | 135° |
| 2026-05-08 06:42 | 20.18144 | -86.04524 | 15688 ft | 375 kts | 135° |
| 2026-05-08 06:42 | 20.16234 | -86.02633 | 16294 ft | 374 kts | 135° |
| 2026-05-08 06:42 | 20.14314 | -86.00753 | 16761 ft | 379 kts | 136° |
| 2026-05-08 06:42 | 20.12347 | -85.98846 | 17142 ft | 383 kts | 136° |
| 2026-05-08 06:43 | 20.10374 | -85.96947 | 17743 ft | 384 kts | 137° |
| 2026-05-08 06:43 | 20.08388 | -85.95044 | 18305 ft | 384 kts | 137° |
| 2026-05-08 06:43 | 20.06394 | -85.93136 | 18701 ft | 387 kts | 137° |
| 2026-05-08 06:43 | 20.04383 | -85.91212 | 19038 ft | 393 kts | 137° |
| 2026-05-08 06:44 | 20.02330 | -85.89249 | 19307 ft | 399 kts | 137° |
| 2026-05-08 06:44 | 20.00255 | -85.87281 | 19765 ft | 400 kts | 137° |
| 2026-05-08 06:44 | 19.98183 | -85.85326 | 20345 ft | 397 kts | 138° |
| 2026-05-08 06:44 | 19.96116 | -85.83380 | 20778 ft | 399 kts | 138° |
| 2026-05-08 06:45 | 19.94012 | -85.81399 | 20954 ft | 408 kts | 138° |
| 2026-05-08 06:45 | 19.91882 | -85.79393 | 21434 ft | 406 kts | 138° |
| 2026-05-08 06:45 | 19.89773 | -85.77407 | 21981 ft | 406 kts | 139° |
| 2026-05-08 06:45 | 19.87650 | -85.75407 | 22256 ft | 412 kts | 139° |
| 2026-05-08 06:46 | 19.85491 | -85.73374 | 22516 ft | 417 kts | 139° |
| 2026-05-08 06:46 | 19.83324 | -85.71333 | 23059 ft | 413 kts | 139° |
| 2026-05-08 06:46 | 19.81171 | -85.69306 | 23483 ft | 415 kts | 139° |
| 2026-05-08 06:46 | 19.78998 | -85.67261 | 23740 ft | 419 kts | 139° |
| 2026-05-08 06:47 | 19.76807 | -85.65200 | 23998 ft | 423 kts | 139° |
| 2026-05-08 06:47 | 19.74595 | -85.63120 | 24263 ft | 426 kts | 139° |
| 2026-05-08 06:47 | 19.72403 | -85.61060 | 24524 ft | 429 kts | 139° |
| 2026-05-08 06:47 | 19.70158 | -85.58951 | 24753 ft | 432 kts | 139° |
| 2026-05-08 06:48 | 19.67899 | -85.56829 | 25002 ft | 435 kts | 139° |
| 2026-05-08 06:48 | 19.65630 | -85.54697 | 25338 ft | 436 kts | 139° |
| 2026-05-08 06:48 | 19.63352 | -85.52559 | 25585 ft | 439 kts | 139° |
| 2026-05-08 06:48 | 19.61052 | -85.50401 | 25767 ft | 444 kts | 139° |
| 2026-05-08 06:49 | 19.58727 | -85.48221 | 25970 ft | 448 kts | 139° |
| 2026-05-08 06:49 | 19.56391 | -85.46031 | 26256 ft | 449 kts | 139° |
| 2026-05-08 06:49 | 19.54049 | -85.43836 | 26559 ft | 450 kts | 139° |
| 2026-05-08 06:49 | 19.51695 | -85.41631 | 26799 ft | 453 kts | 139° |
| 2026-05-08 06:50 | 19.49324 | -85.39412 | 26981 ft | 457 kts | 139° |
| 2026-05-08 06:50 | 19.46934 | -85.37175 | 27204 ft | 460 kts | 139° |
| 2026-05-08 06:50 | 19.44533 | -85.34929 | 27455 ft | 462 kts | 139° |
| 2026-05-08 06:50 | 19.42118 | -85.32670 | 27659 ft | 465 kts | 139° |
| 2026-05-08 06:51 | 19.39687 | -85.30398 | 27913 ft | 467 kts | 139° |
| 2026-05-08 06:51 | 19.37255 | -85.28125 | 28177 ft | 468 kts | 139° |
| 2026-05-08 06:51 | 19.34808 | -85.25840 | 28398 ft | 470 kts | 139° |
| 2026-05-08 06:51 | 19.32349 | -85.23544 | 28639 ft | 472 kts | 139° |
| 2026-05-08 06:52 | 19.29885 | -85.21245 | 28840 ft | 474 kts | 139° |
| 2026-05-08 06:52 | 19.27400 | -85.18927 | 28993 ft | 478 kts | 139° |
| 2026-05-08 06:52 | 19.24903 | -85.16598 | 29242 ft | 479 kts | 139° |
| 2026-05-08 06:52 | 19.22400 | -85.14265 | 29488 ft | 480 kts | 139° |
| 2026-05-08 06:53 | 19.19894 | -85.11930 | 29745 ft | 481 kts | 139° |
| 2026-05-08 06:53 | 19.17378 | -85.09587 | 29911 ft | 484 kts | 139° |
| 2026-05-08 06:53 | 19.12295 | -85.04857 | 30347 ft | 484 kts | 139° |
| 2026-05-08 06:54 | 19.09775 | -85.02513 | 30723 ft | 482 kts | 139° |
| 2026-05-08 06:54 | 19.07249 | -85.00164 | 30802 ft | 487 kts | 139° |
| 2026-05-08 06:54 | 19.02144 | -84.95422 | 31030 ft | 493 kts | 139° |
| 2026-05-08 06:55 | 18.99572 | -84.93034 | 31233 ft | 491 kts | 139° |
| 2026-05-08 06:55 | 18.97009 | -84.90655 | 31449 ft | 488 kts | 139° |
| 2026-05-08 06:55 | 18.94466 | -84.88295 | 31644 ft | 486 kts | 139° |
| 2026-05-08 06:55 | 18.91927 | -84.85941 | 31856 ft | 485 kts | 139° |
| 2026-05-08 06:56 | 18.89397 | -84.83596 | 32084 ft | 483 kts | 139° |
| 2026-05-08 06:56 | 18.86872 | -84.81256 | 32297 ft | 482 kts | 139° |
| 2026-05-08 06:56 | 18.84356 | -84.78926 | 32509 ft | 482 kts | 139° |
| 2026-05-08 06:56 | 18.81836 | -84.76593 | 32744 ft | 482 kts | 139° |
| 2026-05-08 06:57 | 18.79306 | -84.74252 | 32953 ft | 484 kts | 139° |
| 2026-05-08 06:57 | 18.76776 | -84.71911 | 33188 ft | 484 kts | 139° |
| 2026-05-08 06:57 | 18.74239 | -84.69566 | 33415 ft | 485 kts | 139° |
| 2026-05-08 06:57 | 18.71700 | -84.67219 | 33639 ft | 486 kts | 139° |
| 2026-05-08 06:58 | 18.69157 | -84.64870 | 33868 ft | 486 kts | 138° |
| 2026-05-08 06:58 | 18.66611 | -84.62518 | 34085 ft | 487 kts | 138° |
| 2026-05-08 06:58 | 18.64061 | -84.60163 | 34290 ft | 487 kts | 138° |
| 2026-05-08 06:58 | 18.61511 | -84.57810 | 34496 ft | 487 kts | 138° |
| 2026-05-08 06:59 | 18.58957 | -84.55454 | 34698 ft | 487 kts | 138° |
| 2026-05-08 06:59 | 18.56412 | -84.53107 | 34902 ft | 487 kts | 138° |
| 2026-05-08 06:59 | 18.53850 | -84.50776 | 35113 ft | 486 kts | 141° |
| 2026-05-08 06:59 | 18.51078 | -84.48743 | 35311 ft | 485 kts | 150° |
| 2026-05-08 07:00 | 18.48098 | -84.47185 | 35524 ft | 484 kts | 155° |
| 2026-05-08 07:00 | 18.45040 | -84.45728 | 35740 ft | 482 kts | 156° |
| 2026-05-08 07:00 | 18.41977 | -84.44289 | 35946 ft | 481 kts | 156° |
| 2026-05-08 07:00 | 18.38926 | -84.42852 | 36162 ft | 479 kts | 156° |
| 2026-05-08 07:01 | 18.35892 | -84.41410 | 36386 ft | 478 kts | 155° |
| 2026-05-08 07:01 | 18.32875 | -84.39964 | 36590 ft | 476 kts | 155° |
| 2026-05-08 07:01 | 18.29866 | -84.38512 | 36803 ft | 475 kts | 155° |
| 2026-05-08 07:01 | 18.26886 | -84.37068 | 36958 ft | 469 kts | 155° |
| 2026-05-08 07:02 | 18.20964 | -84.34194 | 36953 ft | 470 kts | 155° |
| 2026-05-08 07:02 | 18.14991 | -84.31297 | 36964 ft | 476 kts | 155° |
| 2026-05-08 07:03 | 18.08945 | -84.28368 | 36971 ft | 480 kts | 155° |
| 2026-05-08 07:03 | 18.02896 | -84.25442 | 36950 ft | 477 kts | 155° |
| 2026-05-08 07:04 | 17.96935 | -84.22560 | 36956 ft | 472 kts | 155° |
| 2026-05-08 07:04 | 17.90989 | -84.19688 | 36955 ft | 469 kts | 155° |
| 2026-05-08 07:05 | 17.85024 | -84.16809 | 36959 ft | 475 kts | 155° |
| 2026-05-08 07:05 | 17.79005 | -84.13906 | 36958 ft | 477 kts | 155° |
| 2026-05-08 07:06 | 17.72964 | -84.10994 | 36970 ft | 479 kts | 155° |
| 2026-05-08 07:06 | 17.66908 | -84.08077 | 36957 ft | 477 kts | 155° |
| 2026-05-08 07:07 | 17.60903 | -84.05188 | 36944 ft | 474 kts | 155° |
| 2026-05-08 07:07 | 17.54913 | -84.02307 | 36960 ft | 473 kts | 155° |
| 2026-05-08 07:08 | 17.48930 | -83.99432 | 36953 ft | 473 kts | 155° |
| 2026-05-08 07:08 | 17.42949 | -83.96560 | 36956 ft | 473 kts | 155° |
| 2026-05-08 07:09 | 17.36972 | -83.93691 | 36948 ft | 473 kts | 155° |
| 2026-05-08 07:09 | 17.31028 | -83.90841 | 36965 ft | 473 kts | 155° |
| 2026-05-08 07:10 | 17.25037 | -83.87971 | 36957 ft | 474 kts | 155° |
| 2026-05-08 07:10 | 17.19038 | -83.85098 | 36950 ft | 475 kts | 155° |
| 2026-05-08 07:11 | 17.13035 | -83.82225 | 36963 ft | 474 kts | 155° |
| 2026-05-08 07:11 | 17.07024 | -83.79352 | 36954 ft | 475 kts | 155° |
| 2026-05-08 07:12 | 17.01015 | -83.76480 | 36954 ft | 475 kts | 155° |
| 2026-05-08 07:12 | 16.95004 | -83.73610 | 36943 ft | 475 kts | 155° |
| 2026-05-08 07:13 | 16.88990 | -83.70741 | 36951 ft | 475 kts | 155° |
| 2026-05-08 07:13 | 16.82979 | -83.67875 | 36952 ft | 475 kts | 155° |
| 2026-05-08 07:14 | 16.76971 | -83.65012 | 36945 ft | 475 kts | 154° |
| 2026-05-08 07:14 | 16.71006 | -83.62172 | 36952 ft | 474 kts | 155° |
| 2026-05-08 07:15 | 16.65009 | -83.59319 | 36953 ft | 474 kts | 154° |
| 2026-05-08 07:15 | 16.59011 | -83.56467 | 36957 ft | 473 kts | 155° |
| 2026-05-08 07:16 | 16.53017 | -83.53619 | 36951 ft | 473 kts | 154° |
| 2026-05-08 07:16 | 16.47024 | -83.50773 | 36949 ft | 473 kts | 155° |
| 2026-05-08 07:17 | 16.41036 | -83.47932 | 36955 ft | 473 kts | 155° |
| 2026-05-08 07:17 | 16.35049 | -83.45092 | 36943 ft | 473 kts | 154° |
| 2026-05-08 07:18 | 16.29062 | -83.42255 | 36954 ft | 473 kts | 155° |
| 2026-05-08 07:18 | 16.23075 | -83.39420 | 36946 ft | 472 kts | 155° |
| 2026-05-08 07:19 | 16.17095 | -83.36590 | 36950 ft | 472 kts | 155° |
| 2026-05-08 07:19 | 16.11118 | -83.33762 | 36952 ft | 472 kts | 155° |
| 2026-05-08 07:20 | 16.05142 | -83.30937 | 36941 ft | 472 kts | 154° |
| 2026-05-08 07:20 | 15.99181 | -83.28080 | 36953 ft | 471 kts | 154° |
| 2026-05-08 07:21 | 15.93268 | -83.25226 | 36945 ft | 472 kts | 154° |
| 2026-05-08 07:21 | 15.87318 | -83.22357 | 36950 ft | 471 kts | 154° |
| 2026-05-08 07:22 | 15.81363 | -83.19492 | 36954 ft | 471 kts | 154° |
| 2026-05-08 07:22 | 15.75413 | -83.16634 | 36943 ft | 471 kts | 154° |
| 2026-05-08 07:23 | 15.69460 | -83.13775 | 36951 ft | 471 kts | 154° |
| 2026-05-08 07:23 | 15.63512 | -83.10921 | 36943 ft | 471 kts | 154° |
| 2026-05-08 07:24 | 15.58562 | -83.08547 | 36945 ft | 471 kts | 154° |
| 2026-05-08 07:24 | 15.52615 | -83.05697 | 36949 ft | 471 kts | 154° |
| 2026-05-08 07:25 | 15.46665 | -83.02847 | 36944 ft | 471 kts | 154° |
| 2026-05-08 07:26 | 15.37745 | -82.98578 | 36948 ft | 470 kts | 154° |
| 2026-05-08 07:26 | 15.31803 | -82.95736 | 36941 ft | 470 kts | 154° |
| 2026-05-08 07:27 | 15.25861 | -82.92897 | 36947 ft | 470 kts | 154° |
| 2026-05-08 07:27 | 15.19921 | -82.90060 | 36947 ft | 470 kts | 154° |
| 2026-05-08 07:28 | 15.13986 | -82.87226 | 36943 ft | 470 kts | 154° |
| 2026-05-08 07:28 | 15.08050 | -82.84395 | 36943 ft | 470 kts | 154° |
| 2026-05-08 07:29 | 15.02159 | -82.81586 | 36940 ft | 469 kts | 154° |
| 2026-05-08 07:29 | 14.96224 | -82.78759 | 36942 ft | 469 kts | 154° |
| 2026-05-08 07:30 | 14.90297 | -82.75937 | 36945 ft | 469 kts | 154° |
| 2026-05-08 07:30 | 14.84362 | -82.73112 | 36941 ft | 469 kts | 154° |
| 2026-05-08 07:31 | 14.78431 | -82.70291 | 36944 ft | 469 kts | 154° |
| 2026-05-08 07:31 | 14.72503 | -82.67474 | 36939 ft | 469 kts | 154° |
| 2026-05-08 07:32 | 14.66570 | -82.64656 | 36938 ft | 469 kts | 154° |
| 2026-05-08 07:32 | 14.60637 | -82.61839 | 36941 ft | 469 kts | 154° |
| 2026-05-08 07:33 | 14.54704 | -82.59024 | 36939 ft | 469 kts | 154° |
| 2026-05-08 07:33 | 14.48770 | -82.56210 | 36937 ft | 469 kts | 154° |
| 2026-05-08 07:34 | 14.42834 | -82.53397 | 36939 ft | 469 kts | 154° |
| 2026-05-08 07:34 | 14.36897 | -82.50585 | 36933 ft | 469 kts | 154° |
| 2026-05-08 07:35 | 14.30997 | -82.47792 | 36939 ft | 469 kts | 154° |
| 2026-05-08 07:35 | 14.25058 | -82.44982 | 36936 ft | 470 kts | 154° |
| 2026-05-08 07:36 | 14.19086 | -82.42252 | 36934 ft | 470 kts | 155° |
| 2026-05-08 07:36 | 14.13080 | -82.39575 | 36941 ft | 470 kts | 155° |
| 2026-05-08 07:37 | 14.07081 | -82.36897 | 36933 ft | 470 kts | 155° |
| 2026-05-08 07:37 | 14.01087 | -82.34210 | 36933 ft | 470 kts | 155° |
| 2026-05-08 07:38 | 13.95096 | -82.31520 | 36931 ft | 470 kts | 155° |
| 2026-05-08 07:38 | 13.89101 | -82.28829 | 36931 ft | 470 kts | 155° |
| 2026-05-08 07:39 | 13.83107 | -82.26141 | 36931 ft | 470 kts | 155° |
| 2026-05-08 07:39 | 13.77159 | -82.23475 | 36925 ft | 470 kts | 155° |
| 2026-05-08 07:40 | 13.71172 | -82.20793 | 36928 ft | 469 kts | 155° |
| 2026-05-08 07:40 | 13.65183 | -82.18112 | 36930 ft | 469 kts | 155° |
| 2026-05-08 07:41 | 13.59195 | -82.15433 | 36929 ft | 469 kts | 155° |
| 2026-05-08 07:41 | 13.53203 | -82.12753 | 36934 ft | 469 kts | 155° |
| 2026-05-08 07:42 | 13.47219 | -82.10078 | 36925 ft | 469 kts | 155° |
| 2026-05-08 07:42 | 13.41233 | -82.07404 | 36925 ft | 469 kts | 155° |
| 2026-05-08 07:43 | 13.35248 | -82.04733 | 36929 ft | 469 kts | 155° |
| 2026-05-08 07:43 | 13.29267 | -82.02063 | 36922 ft | 469 kts | 155° |
| 2026-05-08 07:44 | 13.23283 | -81.99395 | 36927 ft | 469 kts | 155° |
| 2026-05-08 07:44 | 13.17300 | -81.96728 | 36927 ft | 469 kts | 155° |
| 2026-05-08 07:45 | 13.11313 | -81.94060 | 36923 ft | 469 kts | 155° |
| 2026-05-08 07:45 | 13.05329 | -81.91396 | 36927 ft | 469 kts | 155° |
| 2026-05-08 07:46 | 12.99389 | -81.88752 | 36924 ft | 469 kts | 155° |
| 2026-05-08 07:46 | 12.93399 | -81.86088 | 36922 ft | 469 kts | 155° |
| 2026-05-08 07:47 | 12.87412 | -81.83426 | 36922 ft | 469 kts | 155° |
| 2026-05-08 07:47 | 12.81424 | -81.80765 | 36917 ft | 469 kts | 155° |
| 2026-05-08 07:48 | 12.75428 | -81.78102 | 36922 ft | 470 kts | 155° |
| 2026-05-08 07:48 | 12.69434 | -81.75441 | 36921 ft | 470 kts | 155° |
| 2026-05-08 07:49 | 12.63436 | -81.72779 | 36941 ft | 470 kts | 155° |
| 2026-05-08 07:49 | 12.57447 | -81.70082 | 36940 ft | 470 kts | 152° |
| 2026-05-08 07:50 | 12.51719 | -81.66876 | 36948 ft | 469 kts | 149° |
| 2026-05-08 07:50 | 12.46072 | -81.63516 | 36935 ft | 469 kts | 149° |
| 2026-05-08 07:51 | 12.40414 | -81.60185 | 36922 ft | 469 kts | 149° |
| 2026-05-08 07:51 | 12.34777 | -81.56915 | 36925 ft | 469 kts | 149° |
| 2026-05-08 07:52 | 12.29058 | -81.53618 | 36920 ft | 468 kts | 149° |
| 2026-05-08 07:52 | 12.23416 | -81.50368 | 36912 ft | 468 kts | 149° |
| 2026-05-08 07:53 | 12.17744 | -81.47102 | 36910 ft | 468 kts | 149° |
| 2026-05-08 07:53 | 12.12079 | -81.43839 | 36911 ft | 467 kts | 149° |
| 2026-05-08 07:54 | 12.06417 | -81.40580 | 36915 ft | 466 kts | 149° |
| 2026-05-08 07:54 | 12.00764 | -81.37328 | 36910 ft | 466 kts | 149° |
| 2026-05-08 07:55 | 11.95118 | -81.34080 | 36907 ft | 466 kts | 149° |
| 2026-05-08 07:55 | 11.89474 | -81.30836 | 36912 ft | 465 kts | 149° |
| 2026-05-08 07:56 | 11.83870 | -81.27617 | 36913 ft | 465 kts | 149° |
| 2026-05-08 07:56 | 11.78231 | -81.24379 | 36909 ft | 465 kts | 149° |
| 2026-05-08 07:57 | 11.72589 | -81.21140 | 36908 ft | 465 kts | 149° |
| 2026-05-08 07:57 | 11.66957 | -81.17909 | 36910 ft | 465 kts | 149° |
| 2026-05-08 07:58 | 11.61324 | -81.14679 | 36906 ft | 464 kts | 149° |
| 2026-05-08 07:58 | 11.55690 | -81.11450 | 36903 ft | 464 kts | 149° |
| 2026-05-08 07:59 | 11.50064 | -81.08226 | 36904 ft | 464 kts | 149° |
| 2026-05-08 07:59 | 11.44432 | -81.05002 | 36901 ft | 464 kts | 149° |
| 2026-05-08 08:00 | 11.38802 | -81.01779 | 36903 ft | 464 kts | 149° |
| 2026-05-08 08:00 | 11.33170 | -80.98557 | 36903 ft | 464 kts | 149° |
| 2026-05-08 08:01 | 11.27579 | -80.95360 | 36899 ft | 464 kts | 149° |
| 2026-05-08 08:01 | 11.21911 | -80.92120 | 36901 ft | 464 kts | 149° |
| 2026-05-08 08:02 | 11.16314 | -80.88922 | 36910 ft | 464 kts | 149° |
| 2026-05-08 08:02 | 11.10670 | -80.85699 | 36893 ft | 465 kts | 149° |
| 2026-05-08 08:03 | 11.05034 | -80.82481 | 36898 ft | 465 kts | 149° |
| 2026-05-08 08:03 | 10.99390 | -80.79261 | 36904 ft | 465 kts | 149° |
| 2026-05-08 08:04 | 10.93753 | -80.76046 | 36896 ft | 465 kts | 149° |
| 2026-05-08 08:04 | 10.88113 | -80.72830 | 36891 ft | 465 kts | 149° |
| 2026-05-08 08:05 | 10.82470 | -80.69615 | 36897 ft | 465 kts | 149° |
| 2026-05-08 08:05 | 10.76828 | -80.66400 | 36893 ft | 465 kts | 149° |
| 2026-05-08 08:06 | 10.71197 | -80.63171 | 36891 ft | 464 kts | 146° |
| 2026-05-08 08:06 | 10.66327 | -80.58935 | 36890 ft | 460 kts | 128° |
| 2026-05-08 08:07 | 10.62490 | -80.53745 | 36897 ft | 459 kts | 124° |
| 2026-05-08 08:07 | 10.58725 | -80.48500 | 36898 ft | 459 kts | 124° |
| 2026-05-08 08:08 | 10.54931 | -80.43279 | 36890 ft | 459 kts | 125° |
| 2026-05-08 08:08 | 10.51140 | -80.38112 | 36893 ft | 459 kts | 125° |
| 2026-05-08 08:09 | 10.47319 | -80.32921 | 36884 ft | 457 kts | 126° |
| 2026-05-08 08:09 | 10.43576 | -80.27841 | 36434 ft | 442 kts | 125° |
| 2026-05-08 08:09 | 10.41737 | -80.25346 | 35934 ft | 441 kts | 125° |
| 2026-05-08 08:10 | 10.39901 | -80.22852 | 35421 ft | 441 kts | 125° |
| 2026-05-08 08:10 | 10.38066 | -80.20359 | 35000 ft | 439 kts | 125° |
| 2026-05-08 08:10 | 10.36242 | -80.17883 | 34589 ft | 436 kts | 126° |
| 2026-05-08 08:10 | 10.34429 | -80.15423 | 34177 ft | 434 kts | 126° |
| 2026-05-08 08:11 | 10.32622 | -80.12972 | 33751 ft | 432 kts | 126° |
| 2026-05-08 08:11 | 10.30829 | -80.10539 | 33298 ft | 430 kts | 126° |
| 2026-05-08 08:11 | 10.29044 | -80.08119 | 32874 ft | 427 kts | 126° |
| 2026-05-08 08:11 | 10.27271 | -80.05714 | 32466 ft | 424 kts | 126° |
| 2026-05-08 08:12 | 10.25509 | -80.03326 | 32058 ft | 421 kts | 126° |
| 2026-05-08 08:12 | 10.23760 | -80.00956 | 31651 ft | 418 kts | 126° |
| 2026-05-08 08:12 | 10.22020 | -79.98599 | 31258 ft | 415 kts | 126° |
| 2026-05-08 08:12 | 10.20292 | -79.96258 | 30869 ft | 413 kts | 126° |
| 2026-05-08 08:13 | 10.18578 | -79.93936 | 30484 ft | 411 kts | 126° |
| 2026-05-08 08:13 | 10.16890 | -79.91650 | 30105 ft | 409 kts | 126° |
| 2026-05-08 08:13 | 10.15170 | -79.89321 | 29651 ft | 407 kts | 126° |
| 2026-05-08 08:13 | 10.13499 | -79.87059 | 29220 ft | 404 kts | 125° |
| 2026-05-08 08:14 | 10.11821 | -79.84789 | 28799 ft | 401 kts | 125° |
| 2026-05-08 08:14 | 10.10157 | -79.82538 | 28392 ft | 397 kts | 125° |
| 2026-05-08 08:14 | 10.08506 | -79.80305 | 27992 ft | 394 kts | 125° |
| 2026-05-08 08:14 | 10.06868 | -79.78089 | 27612 ft | 391 kts | 125° |
| 2026-05-08 08:15 | 10.05241 | -79.75889 | 27214 ft | 388 kts | 124° |
| 2026-05-08 08:15 | 10.03625 | -79.73704 | 26830 ft | 385 kts | 124° |
| 2026-05-08 08:15 | 10.02023 | -79.71538 | 26442 ft | 383 kts | 124° |
| 2026-05-08 08:15 | 10.00966 | -79.70110 | 26191 ft | 381 kts | 124° |
| 2026-05-08 08:16 | 9.99380 | -79.67967 | 25806 ft | 379 kts | 124° |
| 2026-05-08 08:16 | 9.97803 | -79.65835 | 25428 ft | 377 kts | 124° |
| 2026-05-08 08:16 | 9.96235 | -79.63716 | 25063 ft | 375 kts | 124° |
| 2026-05-08 08:16 | 9.94675 | -79.61609 | 24686 ft | 373 kts | 123° |
| 2026-05-08 08:17 | 9.93121 | -79.59508 | 24285 ft | 372 kts | 123° |
| 2026-05-08 08:17 | 9.91573 | -79.57418 | 23899 ft | 371 kts | 123° |
| 2026-05-08 08:17 | 9.90026 | -79.55329 | 23508 ft | 370 kts | 123° |
| 2026-05-08 08:17 | 9.88495 | -79.53264 | 23296 ft | 362 kts | 123° |
| 2026-05-08 08:18 | 9.86974 | -79.51260 | 23086 ft | 356 kts | 128° |
| 2026-05-08 08:18 | 9.85065 | -79.49676 | 22842 ft | 357 kts | 147° |
| 2026-05-08 08:18 | 9.82835 | -79.48581 | 22583 ft | 355 kts | 151° |
| 2026-05-08 08:18 | 9.80578 | -79.47579 | 22235 ft | 353 kts | 152° |
| 2026-05-08 08:19 | 9.78328 | -79.46599 | 21892 ft | 351 kts | 153° |
| 2026-05-08 08:19 | 9.76095 | -79.45619 | 21556 ft | 349 kts | 152° |
| 2026-05-08 08:19 | 9.73878 | -79.44635 | 21217 ft | 347 kts | 152° |
| 2026-05-08 08:19 | 9.71677 | -79.43649 | 20870 ft | 345 kts | 152° |
| 2026-05-08 08:20 | 9.69485 | -79.42662 | 20539 ft | 344 kts | 153° |
| 2026-05-08 08:20 | 9.67336 | -79.41690 | 20200 ft | 342 kts | 153° |
| 2026-05-08 08:20 | 9.65163 | -79.40707 | 19876 ft | 341 kts | 153° |
| 2026-05-08 08:20 | 9.62996 | -79.39727 | 19527 ft | 341 kts | 153° |
| 2026-05-08 08:21 | 9.60834 | -79.38749 | 19199 ft | 340 kts | 153° |
| 2026-05-08 08:21 | 9.58676 | -79.37773 | 18842 ft | 340 kts | 153° |
| 2026-05-08 08:21 | 9.56565 | -79.36720 | 18501 ft | 338 kts | 146° |
| 2026-05-08 08:21 | 9.54640 | -79.35384 | 18232 ft | 333 kts | 141° |
| 2026-05-08 08:22 | 9.52794 | -79.33963 | 17881 ft | 332 kts | 140° |
| 2026-05-08 08:22 | 9.50970 | -79.32537 | 17543 ft | 330 kts | 140° |
| 2026-05-08 08:22 | 9.49151 | -79.31129 | 17213 ft | 328 kts | 141° |
| 2026-05-08 08:22 | 9.47333 | -79.29739 | 16882 ft | 327 kts | 141° |
| 2026-05-08 08:23 | 9.45512 | -79.28362 | 16549 ft | 326 kts | 141° |
| 2026-05-08 08:23 | 9.43699 | -79.27000 | 16216 ft | 324 kts | 141° |
| 2026-05-08 08:23 | 9.41889 | -79.25646 | 15893 ft | 322 kts | 141° |
| 2026-05-08 08:23 | 9.40110 | -79.24317 | 15580 ft | 322 kts | 141° |
| 2026-05-08 08:24 | 9.38312 | -79.22976 | 15250 ft | 321 kts | 140° |
| 2026-05-08 08:24 | 9.36516 | -79.21637 | 14939 ft | 320 kts | 140° |
| 2026-05-08 08:24 | 9.34726 | -79.20302 | 14614 ft | 319 kts | 140° |
| 2026-05-08 08:24 | 9.32941 | -79.18972 | 14272 ft | 319 kts | 140° |
| 2026-05-08 08:25 | 9.31156 | -79.17642 | 13959 ft | 318 kts | 140° |
| 2026-05-08 08:25 | 9.29371 | -79.16313 | 13624 ft | 318 kts | 140° |
| 2026-05-08 08:25 | 9.27467 | -79.15173 | 13247 ft | 324 kts | 158° |
| 2026-05-08 08:25 | 9.25222 | -79.14891 | 12902 ft | 330 kts | 183° |
| 2026-05-08 08:26 | 9.23018 | -79.15548 | 12554 ft | 335 kts | 207° |
| 2026-05-08 08:26 | 9.21041 | -79.16793 | 12224 ft | 335 kts | 212° |
| 2026-05-08 08:26 | 9.19109 | -79.18111 | 11859 ft | 335 kts | 212° |
| 2026-05-08 08:26 | 9.17197 | -79.19429 | 11495 ft | 330 kts | 212° |
| 2026-05-08 08:27 | 9.15304 | -79.20726 | 11139 ft | 325 kts | 212° |
| 2026-05-08 08:27 | 9.13445 | -79.21988 | 10799 ft | 320 kts | 212° |
| 2026-05-08 08:27 | 9.11607 | -79.23227 | 10466 ft | 315 kts | 212° |
| 2026-05-08 08:27 | 9.09797 | -79.24443 | 10140 ft | 310 kts | 212° |
| 2026-05-08 08:28 | 9.08013 | -79.25638 | 9816 ft | 306 kts | 212° |
| 2026-05-08 08:28 | 9.06250 | -79.26817 | 9465 ft | 301 kts | 212° |
| 2026-05-08 08:28 | 9.04516 | -79.27977 | 9125 ft | 296 kts | 212° |
| 2026-05-08 08:28 | 9.02814 | -79.29115 | 8800 ft | 290 kts | 212° |
| 2026-05-08 08:29 | 9.01121 | -79.30172 | 8507 ft | 282 kts | 208° |
| 2026-05-08 08:29 | 8.99447 | -79.31101 | 8248 ft | 275 kts | 207° |
| 2026-05-08 08:29 | 8.97768 | -79.32014 | 7840 ft | 274 kts | 207° |
| 2026-05-08 08:29 | 8.96084 | -79.32927 | 7436 ft | 274 kts | 207° |
| 2026-05-08 08:30 | 8.94410 | -79.33836 | 7062 ft | 272 kts | 207° |
| 2026-05-08 08:30 | 8.92762 | -79.34731 | 6881 ft | 262 kts | 207° |
| 2026-05-08 08:30 | 8.89553 | -79.36473 | 6050 ft | 265 kts | 208° |
| 2026-05-08 08:31 | 8.87917 | -79.37362 | 5572 ft | 268 kts | 208° |
| 2026-05-08 08:31 | 8.86341 | -79.38365 | 5078 ft | 270 kts | 225° |
| 2026-05-08 08:31 | 8.85387 | -79.39966 | 4609 ft | 267 kts | 257° |
| 2026-05-08 08:31 | 8.85324 | -79.41809 | 4126 ft | 263 kts | 284° |
| 2026-05-08 08:32 | 8.86004 | -79.43496 | 3664 ft | 259 kts | 303° |
| 2026-05-08 08:32 | 8.86955 | -79.45022 | 3470 ft | 248 kts | 305° |
| 2026-05-08 08:32 | 8.87880 | -79.46419 | 3436 ft | 229 kts | 314° |
| 2026-05-08 08:32 | 8.89148 | -79.47209 | 3239 ft | 208 kts | 354° |
| 2026-05-08 08:33 | 8.90489 | -79.46982 | 3076 ft | 191 kts | 22° |
| 2026-05-08 08:33 | 8.91687 | -79.46477 | 2841 ft | 182 kts | 22° |
| 2026-05-08 08:33 | 8.92820 | -79.45988 | 2647 ft | 171 kts | 25° |
| 2026-05-08 08:33 | 8.93852 | -79.45457 | 2402 ft | 161 kts | 28° |
| 2026-05-08 08:34 | 8.94793 | -79.44933 | 2240 ft | 152 kts | 28° |
| 2026-05-08 08:34 | 8.95706 | -79.44408 | 2005 ft | 148 kts | 30° |
| 2026-05-08 08:34 | 8.96612 | -79.43894 | 1818 ft | 150 kts | 27° |
| 2026-05-08 08:34 | 8.97516 | -79.43380 | 1605 ft | 148 kts | 28° |
| 2026-05-08 08:35 | 8.98386 | -79.42858 | 1439 ft | 144 kts | 29° |
| 2026-05-08 08:35 | 8.99254 | -79.42331 | 1269 ft | 147 kts | 29° |
| 2026-05-08 08:35 | 9.00131 | -79.41823 | 1095 ft | 145 kts | 26° |
| 2026-05-08 08:35 | 9.01037 | -79.41338 | 867 ft | 148 kts | 27° |
| 2026-05-08 08:36 | 9.01936 | -79.40853 | 699 ft | 147 kts | 28° |
| 2026-05-08 08:36 | 9.02830 | -79.40340 | 514 ft | 146 kts | 28° |
| 2026-05-08 08:36 | 9.03721 | -79.39843 | 290 ft | 144 kts | 28° |
| 2026-05-08 08:36 | 9.04595 | -79.39355 | 105 ft | 144 kts | 28° |
| 2026-05-08 08:37 | 9.05444 | -79.38873 | 29 ft | 128 kts | 29° |
| 2026-05-08 08:37 | 9.06034 | -79.38539 | 31 ft | 66 kts | 29° |
| 2026-05-08 08:37 | 9.06269 | -79.38406 | 30 ft | 22 kts | 30° |
| 2026-05-08 08:37 | 9.06415 | -79.38377 | 28 ft | 19 kts | 358° |
| 2026-05-08 08:38 | 9.06540 | -79.38378 | 29 ft | 12 kts | 1° |
| 2026-05-08 08:38 | 9.06602 | -79.38378 | 29 ft | 11 kts | 356° |
| 2026-05-08 08:38 | 9.06652 | -79.38413 | 29 ft | 4 kts | 300° |
| 2026-05-08 08:38 | 9.06662 | -79.38437 | 29 ft | 4 kts | 278° |
| 2026-05-08 08:39 | 9.06622 | -79.38481 | 29 ft | 14 kts | 208° |
| 2026-05-08 08:39 | 9.06499 | -79.38547 | 29 ft | 25 kts | 207° |
| 2026-05-08 08:39 | 9.06447 | -79.38579 | 29 ft | 6 kts | 237° |
| 2026-05-08 08:39 | 9.06444 | -79.38589 | 29 ft | 2 kts | 261° |
| 2026-05-08 08:40 | 9.06447 | -79.38602 | 29 ft | 2 kts | 290° |
| 2026-05-08 08:40 | 9.06458 | -79.38620 | 29 ft | 4 kts | 303° |
| 2026-05-08 08:40 | 9.06469 | -79.38637 | 29 ft | 2 kts | 304° |
| 2026-05-08 08:40 | 9.06473 | -79.38643 | 29 ft | 0 kts | 304° |
| 2026-05-08 08:41 | 9.06472 | -79.38641 | 29 ft | 0 kts | 304° |
| 2026-05-08 08:41 | 9.06470 | -79.38639 | 29 ft | 0 kts | 304° |